createdAt,value
2018-02-13T00:01:48.418Z,4.18
2018-02-13T00:04:15.902Z,3.30
2018-02-13T00:06:43.744Z,3.30
2018-02-13T00:09:11.221Z,3.28
2018-02-13T00:11:38.705Z,3.87
2018-02-13T00:14:06.772Z,2.95
2018-02-13T00:16:34.278Z,3.45
2018-02-13T00:19:01.771Z,5.43
2018-02-13T00:21:29.253Z,3.97
2018-02-13T00:23:56.909Z,2.97
2018-02-13T00:26:24.976Z,3.50
2018-02-13T00:28:52.509Z,3.08
2018-02-13T00:31:19.992Z,3.00
2018-02-13T00:33:47.522Z,3.40
2018-02-13T00:36:15.008Z,3.03
2018-02-13T00:38:42.501Z,3.40
2018-02-13T00:41:10.007Z,3.92
2018-02-13T00:43:37.490Z,3.30
2018-02-13T00:46:04.985Z,3.60
2018-02-13T00:48:32.481Z,4.15
2018-02-13T00:50:59.969Z,3.60
2018-02-13T00:53:27.445Z,3.92
2018-02-13T00:55:54.929Z,3.70
2018-02-13T00:58:22.424Z,3.37
2018-02-13T01:00:49.971Z,4.10
2018-02-13T01:03:17.629Z,3.33
2018-02-13T01:05:45.110Z,3.50
2018-02-13T01:08:12.606Z,3.35
2018-02-13T01:10:40.089Z,3.33
2018-02-13T01:13:07.671Z,3.80
2018-02-13T01:15:35.166Z,3.67
2018-02-13T01:18:03.301Z,3.97
2018-02-13T01:20:30.794Z,3.58
2018-02-13T01:22:58.273Z,4.12
2018-02-13T01:25:25.810Z,4.40
2018-02-13T01:27:53.291Z,3.47
2018-02-13T01:30:20.584Z,3.83
2018-02-13T01:32:48.064Z,3.70
2018-02-13T01:35:15.565Z,4.53
2018-02-13T01:37:43.045Z,3.80
2018-02-13T01:40:10.536Z,4.05
2018-02-13T01:42:38.013Z,3.83
2018-02-13T01:45:05.306Z,3.60
2018-02-13T01:47:33.527Z,3.30
2018-02-13T01:50:00.798Z,3.83
2018-02-13T01:52:28.289Z,4.03
2018-02-13T01:54:56.732Z,3.78
2018-02-13T01:57:24.892Z,4.07
2018-02-13T01:59:52.385Z,3.87
2018-02-13T02:02:20.673Z,4.05
2018-02-13T02:04:48.168Z,4.10
2018-02-13T02:07:16.649Z,4.07
2018-02-13T02:09:44.161Z,3.87
2018-02-13T02:12:11.882Z,4.12
2018-02-13T02:14:39.390Z,3.97
2018-02-13T02:17:06.868Z,4.87
2018-02-13T02:19:34.349Z,5.07
2018-02-13T02:22:01.873Z,4.62
2018-02-13T02:24:29.356Z,3.90
2018-02-13T02:26:56.867Z,3.80
2018-02-13T02:29:24.368Z,4.45
2018-02-13T02:37:23.797Z,5.80
2018-02-13T02:39:51.287Z,5.00
2018-02-13T02:42:18.815Z,4.28
2018-02-13T02:44:46.294Z,4.15
2018-02-13T02:47:14.791Z,4.10
2018-02-13T02:49:42.291Z,4.93
2018-02-13T02:52:09.794Z,5.10
2018-02-13T02:54:37.278Z,5.35
2018-02-13T02:57:04.803Z,5.87
2018-02-13T02:59:32.296Z,5.20
2018-02-13T03:04:44.817Z,4.68
2018-02-13T03:07:12.314Z,4.95
2018-02-13T03:09:39.793Z,4.65
2018-02-13T03:12:07.410Z,4.78
2018-02-13T03:14:34.902Z,4.78
2018-02-13T03:17:02.765Z,5.30
2018-02-13T03:19:30.246Z,5.32
2018-02-13T03:21:57.741Z,6.00
2018-02-13T03:24:24.986Z,5.50
2018-02-13T03:26:53.503Z,5.18
2018-02-13T03:29:20.987Z,5.70
2018-02-13T03:31:48.502Z,7.00
2018-02-13T03:34:16.036Z,6.00
2018-02-13T03:36:43.541Z,5.87
2018-02-13T03:39:11.034Z,6.45
2018-02-13T03:41:38.546Z,6.80
2018-02-13T03:44:06.036Z,7.05
2018-02-13T03:46:33.545Z,8.85
2018-02-13T03:49:01.052Z,7.53
2018-02-13T03:51:28.554Z,7.28
2018-02-13T03:53:56.106Z,7.00
2018-02-13T03:56:23.617Z,6.40
2018-02-13T03:58:51.114Z,6.10
2018-02-13T04:01:18.613Z,5.93
2018-02-13T04:03:46.239Z,5.93
2018-02-13T04:06:13.737Z,4.97
2018-02-13T04:08:41.218Z,5.95
2018-02-13T04:11:08.745Z,5.85
2018-02-13T04:13:36.243Z,6.20
2018-02-13T04:16:03.728Z,5.82
2018-02-13T04:18:31.221Z,6.30
2018-02-13T04:20:58.719Z,7.20
2018-02-13T04:23:28.181Z,6.35
2018-02-13T04:25:55.729Z,6.18
2018-02-13T04:28:23.229Z,5.62
2018-02-13T04:30:50.545Z,6.68
2018-02-13T04:33:18.058Z,7.22
2018-02-13T04:35:45.576Z,6.40
2018-02-13T04:38:13.089Z,6.40
2018-02-13T04:40:40.615Z,6.03
2018-02-13T04:43:08.121Z,6.30
2018-02-13T04:45:35.601Z,6.03
2018-02-13T04:48:03.130Z,6.55
2018-02-13T04:50:30.485Z,5.15
2018-02-13T04:52:58.014Z,6.40
2018-02-13T04:55:25.509Z,6.07
2018-02-13T04:57:54.058Z,5.43
2018-02-13T05:00:21.558Z,6.18
2018-02-13T05:02:49.066Z,6.40
2018-02-13T05:05:16.547Z,5.95
2018-02-13T05:07:44.049Z,6.55
2018-02-13T05:10:11.531Z,6.57
2018-02-13T05:12:39.045Z,5.65
2018-02-13T05:15:06.965Z,5.30
2018-02-13T05:17:35.430Z,6.80
2018-02-13T05:20:02.909Z,5.60
2018-02-13T05:22:30.404Z,6.25
2018-02-13T05:24:57.885Z,5.43
2018-02-13T05:27:25.369Z,5.78
2018-02-13T05:29:52.846Z,6.85
2018-02-13T05:32:20.348Z,6.93
2018-02-13T05:34:47.838Z,7.47
2018-02-13T05:37:15.326Z,7.55
2018-02-13T05:39:42.843Z,6.43
2018-02-13T05:42:10.330Z,8.05
2018-02-13T05:44:37.813Z,6.78
2018-02-13T05:47:05.320Z,7.40
2018-02-13T05:49:32.818Z,6.72
2018-02-13T05:52:00.293Z,6.62
2018-02-13T05:54:27.777Z,6.03
2018-02-13T05:56:55.300Z,5.97
2018-02-13T05:59:22.788Z,6.65
2018-02-13T06:01:50.703Z,12.57
2018-02-13T06:04:18.374Z,6.85
2018-02-13T06:06:46.845Z,7.30
2018-02-13T06:09:14.334Z,7.55
2018-02-13T06:11:42.184Z,7.60
2018-02-13T06:14:09.666Z,7.15
2018-02-13T06:16:37.149Z,9.38
2018-02-13T06:19:04.645Z,7.55
2018-02-13T06:21:32.135Z,7.35
2018-02-13T06:23:59.624Z,7.65
2018-02-13T06:26:27.164Z,6.25
2018-02-13T06:28:54.811Z,7.05
2018-02-13T06:31:23.261Z,6.30
2018-02-13T06:33:50.745Z,7.57
2018-02-13T06:36:18.290Z,6.60
2018-02-13T06:38:45.768Z,6.43
2018-02-13T06:41:13.254Z,7.93
2018-02-13T06:43:40.737Z,8.20
2018-02-13T06:46:08.224Z,9.18
2018-02-13T06:48:36.461Z,8.70
2018-02-13T06:51:03.942Z,8.70
2018-02-13T06:53:31.454Z,6.78
2018-02-13T06:55:58.934Z,6.70
2018-02-13T06:58:26.421Z,6.53
2018-02-13T07:00:53.909Z,6.35
2018-02-13T07:03:21.417Z,8.40
2018-02-13T07:05:48.897Z,6.78
2018-02-13T07:08:16.896Z,7.30
2018-02-13T07:10:44.409Z,6.70
2018-02-13T07:13:11.913Z,8.85
2018-02-13T07:15:39.454Z,7.90
2018-02-13T07:18:06.982Z,14.32
2018-02-13T07:20:34.481Z,11.27
2018-02-13T07:23:01.985Z,8.90
2018-02-13T07:25:29.512Z,7.00
2018-02-13T07:27:57.019Z,6.53
2018-02-13T07:30:24.538Z,7.75
2018-02-13T07:32:52.058Z,46.17
2018-02-13T07:35:19.553Z,30.95
2018-02-13T07:37:47.103Z,17.92
2018-02-13T07:40:14.585Z,15.05
2018-02-13T07:42:42.134Z,12.98
2018-02-13T07:45:09.790Z,10.95
2018-02-13T07:47:37.286Z,10.02
2018-02-13T07:50:04.522Z,8.70
2018-02-13T07:52:32.006Z,8.40
2018-02-13T07:54:59.506Z,13.48
2018-02-13T07:57:26.986Z,9.35
2018-02-13T07:59:54.488Z,11.77
2018-02-13T08:02:21.979Z,10.48
2018-02-13T08:04:49.479Z,6.93
2018-02-13T08:07:17.003Z,7.93
2018-02-13T08:09:44.512Z,8.35
2018-02-13T08:12:12.006Z,9.18
2018-02-13T08:14:39.504Z,8.50
2018-02-13T08:17:06.990Z,9.18
2018-02-13T08:19:34.499Z,7.30
2018-02-13T08:22:01.985Z,7.55
2018-02-13T08:24:29.490Z,6.57
2018-02-13T08:26:56.978Z,6.45
2018-02-13T08:29:24.522Z,6.82
2018-02-13T08:31:52.954Z,8.07
2018-02-13T08:34:24.561Z,7.95
2018-02-13T08:36:52.065Z,7.75
2018-02-13T08:39:19.606Z,7.30
2018-02-13T08:41:48.097Z,7.10
2018-02-13T08:44:15.610Z,7.57
2018-02-13T08:46:43.095Z,6.80
2018-02-13T08:49:10.601Z,6.78
2018-02-13T08:51:38.081Z,6.18
2018-02-13T08:54:05.577Z,7.35
2018-02-13T08:56:33.065Z,6.40
2018-02-13T08:59:00.587Z,6.05
2018-02-13T09:01:28.106Z,5.97
2018-02-13T09:03:55.770Z,5.55
2018-02-13T09:06:23.624Z,5.62
2018-02-13T09:08:51.117Z,5.70
2018-02-13T09:11:18.594Z,5.65
2018-02-13T09:13:46.093Z,5.50
2018-02-13T09:16:13.812Z,5.62
2018-02-13T09:18:42.314Z,6.78
2018-02-13T09:21:09.805Z,6.37
2018-02-13T09:23:37.288Z,4.53
2018-02-13T09:26:04.785Z,4.65
2018-02-13T09:28:32.286Z,4.45
2018-02-13T09:30:59.778Z,4.53
2018-02-13T09:33:27.257Z,3.87
2018-02-13T09:35:54.757Z,4.10
2018-02-13T09:38:22.243Z,4.55
2018-02-13T09:40:49.740Z,3.97
2018-02-13T09:43:17.226Z,3.45
2018-02-13T09:45:44.719Z,3.42
2018-02-13T09:48:12.202Z,4.05
2018-02-13T09:50:40.629Z,3.83
2018-02-13T09:53:08.115Z,4.30
2018-02-13T09:55:35.643Z,4.35
2018-02-13T09:58:03.136Z,3.95
2018-02-13T10:00:30.665Z,3.60
2018-02-13T10:02:58.151Z,3.10
2018-02-13T10:05:25.650Z,3.50
2018-02-13T10:07:53.164Z,2.65
2018-02-13T10:10:20.667Z,2.55
2018-02-13T10:12:48.145Z,3.20
2018-02-13T10:15:15.641Z,2.30
2018-02-13T10:17:42.960Z,2.62
2018-02-13T10:20:10.348Z,2.12
2018-02-13T10:22:37.641Z,2.20
2018-02-13T10:25:05.153Z,1.85
2018-02-13T10:27:32.642Z,1.73
2018-02-13T10:30:00.137Z,1.40
2018-02-13T10:32:27.615Z,1.37
2018-02-13T10:34:55.113Z,1.62
2018-02-13T10:37:22.585Z,1.20
2018-02-13T10:39:50.081Z,1.40
2018-02-13T10:42:17.573Z,1.42
2018-02-13T10:44:47.006Z,1.60
2018-02-13T10:47:14.485Z,1.33
2018-02-13T10:49:42.974Z,1.80
2018-02-13T10:52:10.450Z,1.40
2018-02-13T10:54:37.958Z,1.30
2018-02-13T10:57:05.454Z,1.55
2018-02-13T10:59:32.929Z,1.45
2018-02-13T11:02:06.004Z,1.90
2018-02-13T11:04:33.501Z,2.00
2018-02-13T11:07:00.978Z,1.55
2018-02-13T11:09:28.461Z,1.80
2018-02-13T11:11:55.944Z,1.52
2018-02-13T11:14:23.225Z,1.45
2018-02-13T11:16:50.509Z,1.48
2018-02-13T11:19:18.006Z,1.62
2018-02-13T11:21:45.481Z,1.92
2018-02-13T11:24:12.954Z,1.62
2018-02-13T11:26:40.433Z,2.00
2018-02-13T11:29:07.911Z,2.30
2018-02-13T11:31:35.381Z,1.40
2018-02-13T11:34:02.665Z,1.33
2018-02-13T11:36:30.149Z,1.73
2018-02-13T11:38:57.630Z,1.58
2018-02-13T11:41:25.108Z,1.80
2018-02-13T11:43:52.422Z,1.35
2018-02-13T11:46:19.906Z,1.40
2018-02-13T11:48:47.405Z,1.23
2018-02-13T11:51:14.877Z,1.10
2018-02-13T11:53:42.372Z,1.17
2018-02-13T11:56:09.849Z,1.37
2018-02-13T11:58:37.322Z,1.48
2018-02-13T12:01:04.805Z,1.45
2018-02-13T12:03:32.278Z,1.20
2018-02-13T12:05:59.763Z,1.10
2018-02-13T12:08:27.250Z,1.55
2018-02-13T12:10:54.721Z,1.05
2018-02-13T12:13:22.198Z,1.58
2018-02-13T12:15:49.674Z,1.55
2018-02-13T12:18:17.182Z,1.27
2018-02-13T12:20:44.676Z,1.48
2018-02-13T12:23:13.291Z,1.52
2018-02-13T12:25:42.262Z,1.55
2018-02-13T12:28:09.494Z,1.62
2018-02-13T12:30:36.840Z,1.50
2018-02-13T12:33:04.462Z,1.30
2018-02-13T12:35:31.934Z,1.50
2018-02-13T12:37:59.429Z,1.80
2018-02-13T12:40:26.914Z,1.65
2018-02-13T12:42:54.427Z,1.30
2018-02-13T12:45:22.065Z,1.30
2018-02-13T12:47:49.538Z,1.75
2018-02-13T12:50:17.013Z,1.62
2018-02-13T12:52:44.485Z,1.87
2018-02-13T12:55:11.964Z,1.40
2018-02-13T12:57:39.445Z,1.83
2018-02-13T13:00:06.934Z,2.30
2018-02-13T13:02:34.144Z,2.07
2018-02-13T13:05:01.334Z,2.77
2018-02-13T13:07:28.543Z,2.30
2018-02-13T13:09:55.741Z,2.67
2018-02-13T13:12:22.940Z,2.50
2018-02-13T13:14:50.136Z,2.63
2018-02-13T13:17:17.330Z,2.97
2018-02-13T13:19:44.557Z,2.60
2018-02-13T13:22:11.753Z,3.07
2018-02-13T13:24:38.984Z,3.20
2018-02-13T13:27:06.181Z,3.27
2018-02-13T13:29:33.393Z,2.60
2018-02-13T13:32:00.586Z,2.47
2018-02-13T13:34:27.805Z,2.60
2018-02-13T13:36:55.007Z,2.70
2018-02-13T13:39:22.268Z,2.50
2018-02-13T13:41:49.466Z,2.13
2018-02-13T13:44:18.653Z,2.60
2018-02-13T13:46:45.849Z,2.67
2018-02-13T13:49:15.037Z,2.40
2018-02-13T13:51:42.234Z,2.70
2018-02-13T13:54:09.461Z,2.50
2018-02-13T13:56:36.657Z,2.20
2018-02-13T13:59:03.882Z,2.67
2018-02-13T14:01:30.893Z,2.47
2018-02-13T14:03:58.105Z,2.23
2018-02-13T14:06:25.293Z,2.40
2018-02-13T14:08:52.503Z,3.00
2018-02-13T14:11:20.550Z,2.90
2018-02-13T14:13:47.576Z,2.60
2018-02-13T14:16:14.789Z,2.50
2018-02-13T14:18:41.813Z,2.60
2018-02-13T14:21:09.973Z,2.20
2018-02-13T14:23:37.168Z,2.80
2018-02-13T14:26:05.313Z,2.93
2018-02-13T14:28:32.533Z,3.30
2018-02-13T14:30:59.906Z,2.63
2018-02-13T14:33:27.100Z,3.37
2018-02-13T14:35:55.069Z,3.30
2018-02-13T14:38:23.018Z,3.60
2018-02-13T14:40:52.201Z,3.37
2018-02-13T14:43:19.406Z,3.53
2018-02-13T14:45:46.646Z,3.13
2018-02-13T14:48:13.841Z,3.03
2018-02-13T14:50:41.050Z,3.03
2018-02-13T14:53:08.741Z,3.50
2018-02-13T14:55:35.953Z,4.00
2018-02-13T14:58:04.109Z,3.43
2018-02-13T15:00:31.137Z,3.43
2018-02-13T15:02:58.361Z,3.10
2018-02-13T15:05:25.582Z,3.83
2018-02-13T15:07:52.802Z,3.23
2018-02-13T15:10:20.014Z,3.67
2018-02-13T15:12:47.024Z,3.40
2018-02-13T15:15:14.910Z,4.37
2018-02-13T15:17:45.682Z,3.33
2018-02-13T15:20:12.903Z,3.90
2018-02-13T15:22:40.094Z,3.93
2018-02-13T15:25:07.332Z,3.67
2018-02-13T15:27:34.526Z,4.30
2018-02-13T15:30:01.754Z,3.53
2018-02-13T15:32:28.969Z,3.87
2018-02-13T15:34:56.191Z,3.07
2018-02-13T15:37:23.394Z,3.40
2018-02-13T15:39:50.598Z,4.10
2018-02-13T15:42:19.734Z,2.83
2018-02-13T15:44:46.925Z,3.50
2018-02-13T15:47:14.254Z,3.95
2018-02-13T15:49:42.194Z,2.87
2018-02-13T15:52:09.694Z,3.22
2018-02-13T15:54:37.166Z,2.75
2018-02-13T15:57:04.666Z,3.40
2018-02-13T15:59:32.143Z,3.90
2018-02-13T16:01:59.649Z,3.10
2018-02-13T16:04:27.130Z,3.62
2018-02-13T16:06:54.626Z,3.12
2018-02-13T16:09:22.118Z,4.15
2018-02-13T16:11:49.617Z,3.22
2018-02-13T16:14:18.062Z,3.70
2018-02-13T16:16:46.588Z,3.60
2018-02-13T16:19:14.062Z,3.62
2018-02-13T16:21:41.561Z,4.32
2018-02-13T16:24:09.058Z,4.00
2018-02-13T16:26:36.529Z,3.50
2018-02-13T16:29:04.020Z,3.45
2018-02-13T16:31:31.572Z,3.50
2018-02-13T16:33:59.046Z,3.60
2018-02-13T16:36:26.545Z,4.12
2018-02-13T16:38:54.022Z,3.80
2018-02-13T16:41:21.519Z,3.60
2018-02-13T16:43:48.997Z,3.40
2018-02-13T16:46:16.479Z,3.55
2018-02-13T16:48:43.977Z,3.62
2018-02-13T16:51:11.458Z,3.92
2018-02-13T16:53:38.982Z,6.28
2018-02-13T16:56:06.465Z,7.72
2018-02-13T16:58:33.973Z,5.40
2018-02-13T17:01:01.475Z,4.28
2018-02-13T17:03:28.978Z,5.18
2018-02-13T17:05:56.501Z,5.45
2018-02-13T17:08:25.012Z,6.07
2018-02-13T17:10:52.497Z,5.20
2018-02-13T17:13:19.992Z,6.05
2018-02-13T17:15:48.441Z,5.57
2018-02-13T17:18:15.937Z,6.55
2018-02-13T17:20:43.419Z,4.97
2018-02-13T17:23:11.913Z,5.80
2018-02-13T17:25:39.398Z,4.97
2018-02-13T17:28:06.886Z,5.15
2018-02-13T17:30:34.390Z,4.45
2018-02-13T17:33:01.878Z,4.45
2018-02-13T17:35:29.367Z,9.23
2018-02-13T17:37:56.844Z,4.40
2018-02-13T17:40:24.343Z,4.75
2018-02-13T17:42:51.824Z,4.97
2018-02-13T17:45:19.426Z,4.45
2018-02-13T17:47:46.906Z,5.50
2018-02-13T17:50:14.386Z,4.82
2018-02-13T17:52:41.898Z,4.80
2018-02-13T17:55:09.381Z,5.20
2018-02-13T17:57:36.876Z,4.78
2018-02-13T18:00:04.371Z,5.60
2018-02-13T18:02:31.853Z,5.20
2018-02-13T18:04:59.366Z,6.12
2018-02-13T18:07:26.849Z,5.95
2018-02-13T18:09:54.334Z,5.47
2018-02-13T18:12:21.828Z,5.53
2018-02-13T18:14:49.309Z,5.65
2018-02-13T18:17:16.789Z,5.60
2018-02-13T18:19:44.273Z,5.18
2018-02-13T18:22:11.765Z,5.40
2018-02-13T18:24:39.283Z,6.85
2018-02-13T18:27:06.766Z,5.50
2018-02-13T18:29:34.303Z,7.28
2018-02-13T18:32:01.786Z,7.00
2018-02-13T18:34:29.269Z,5.50
2018-02-13T18:36:56.750Z,6.45
2018-02-13T18:39:24.236Z,5.62
2018-02-13T18:41:51.737Z,6.05
2018-02-13T18:44:19.241Z,6.22
2018-02-13T18:46:46.725Z,7.07
2018-02-13T18:49:14.248Z,6.03
2018-02-13T18:51:41.733Z,6.00
2018-02-13T18:54:09.230Z,6.18
2018-02-13T18:56:36.717Z,5.87
2018-02-13T18:59:05.158Z,7.40
2018-02-13T19:01:32.655Z,6.47
2018-02-13T19:04:00.143Z,7.18
2018-02-13T19:06:27.638Z,7.60
2018-02-13T19:08:55.167Z,6.80
2018-02-13T19:11:22.797Z,7.00
2018-02-13T19:13:50.286Z,7.72
2018-02-13T19:16:17.846Z,6.85
2018-02-13T19:18:45.331Z,7.00
2018-02-13T19:21:12.822Z,7.05
2018-02-13T19:23:40.310Z,7.55
2018-02-13T19:26:07.808Z,7.47
2018-02-13T19:28:35.301Z,7.40
2018-02-13T19:31:02.809Z,7.75
2018-02-13T19:33:30.319Z,8.55
2018-02-13T19:35:57.812Z,7.87
2018-02-13T19:38:26.230Z,6.95
2018-02-13T19:40:53.569Z,7.62
2018-02-13T19:43:21.066Z,7.65
2018-02-13T19:45:48.589Z,7.43
2018-02-13T19:48:16.757Z,7.55
2018-02-13T19:50:44.293Z,8.15
2018-02-13T19:53:11.848Z,7.90
2018-02-13T19:55:39.341Z,8.10
2018-02-13T19:58:06.841Z,8.27
2018-02-13T20:00:34.341Z,9.18
2018-02-13T20:03:01.853Z,8.30
2018-02-13T20:05:29.426Z,7.93
2018-02-13T20:07:56.918Z,9.45
2018-02-13T20:10:24.439Z,8.57
2018-02-13T20:12:51.949Z,8.95
2018-02-13T20:15:19.479Z,8.70
2018-02-13T20:17:46.973Z,10.02
2018-02-13T20:20:14.487Z,9.38
2018-02-13T20:22:41.969Z,9.07
2018-02-13T20:25:09.471Z,9.38
2018-02-13T20:27:36.863Z,9.02
2018-02-13T20:30:04.354Z,9.77
2018-02-13T20:32:31.844Z,8.95
2018-02-13T20:34:59.332Z,9.00
2018-02-13T20:37:26.822Z,8.07
2018-02-13T20:39:54.319Z,8.18
2018-02-13T20:42:21.805Z,9.48
2018-02-13T20:44:50.130Z,10.18
2018-02-13T20:47:17.640Z,8.85
2018-02-13T20:49:45.126Z,8.23
2018-02-13T20:52:12.634Z,8.95
2018-02-13T20:54:40.118Z,8.00
2018-02-13T20:57:07.621Z,8.55
2018-02-13T20:59:35.105Z,7.90
2018-02-13T21:02:02.630Z,9.02
2018-02-13T21:04:30.138Z,8.32
2018-02-13T21:06:57.648Z,9.40
2018-02-13T21:09:25.910Z,9.38
2018-02-13T21:11:54.425Z,9.13
2018-02-13T21:14:24.160Z,8.98
2018-02-13T21:16:51.701Z,8.75
2018-02-13T21:19:19.190Z,9.60
2018-02-13T21:21:46.692Z,9.63
2018-02-13T21:24:14.180Z,9.60
2018-02-13T21:26:41.714Z,9.95
2018-02-13T21:29:09.212Z,9.30
2018-02-13T21:31:36.727Z,9.65
2018-02-13T21:34:04.218Z,9.18
2018-02-13T21:36:31.726Z,9.80
2018-02-13T21:38:59.217Z,9.65
2018-02-13T21:41:26.725Z,8.90
2018-02-13T21:43:54.222Z,9.25
2018-02-13T21:46:21.718Z,8.65
2018-02-13T21:48:49.312Z,9.45
2018-02-13T21:51:16.823Z,8.80
2018-02-13T21:53:44.362Z,9.40
2018-02-13T21:56:11.864Z,8.63
2018-02-13T21:58:39.346Z,9.70
2018-02-13T22:01:06.828Z,8.77
2018-02-13T22:03:34.323Z,9.00
2018-02-13T22:06:01.818Z,9.93
2018-02-13T22:08:29.313Z,8.63
2018-02-13T22:10:56.799Z,8.95
2018-02-13T22:13:24.502Z,8.88
2018-02-13T22:15:51.750Z,9.38
2018-02-13T22:18:19.290Z,8.52
2018-02-13T22:20:46.769Z,8.48
2018-02-13T22:23:14.261Z,8.38
2018-02-13T22:25:41.750Z,8.25
2018-02-13T22:28:09.260Z,9.43
2018-02-13T22:30:36.741Z,9.15
2018-02-13T22:33:04.245Z,9.40
2018-02-13T22:35:31.730Z,8.13
2018-02-13T22:38:01.216Z,9.88
2018-02-13T22:40:28.714Z,8.05
2018-02-13T22:42:57.223Z,7.75
2018-02-13T22:45:24.701Z,8.93
2018-02-13T22:47:53.233Z,8.45
2018-02-13T22:50:20.716Z,9.65
2018-02-13T22:52:48.227Z,9.38
2018-02-13T22:55:15.712Z,9.50
2018-02-13T22:57:43.261Z,9.13
2018-02-13T23:00:10.508Z,8.20
2018-02-13T23:02:38.017Z,8.05
2018-02-13T23:05:05.501Z,8.90
2018-02-13T23:07:33.024Z,9.27
2018-02-13T23:10:00.509Z,9.63
2018-02-13T23:12:28.017Z,8.35
2018-02-13T23:14:55.534Z,9.20
2018-02-13T23:17:24.061Z,9.05
2018-02-13T23:19:52.563Z,9.50
2018-02-13T23:22:20.082Z,9.27
2018-02-13T23:24:47.615Z,8.95
2018-02-13T23:27:15.097Z,9.20
2018-02-13T23:29:42.597Z,8.95
2018-02-13T23:32:10.194Z,9.77
2018-02-13T23:34:37.682Z,8.20
2018-02-13T23:37:05.165Z,8.80
2018-02-13T23:39:32.663Z,9.55
2018-02-13T23:42:00.194Z,9.98
2018-02-13T23:44:27.687Z,10.55
2018-02-13T23:46:55.185Z,9.32
2018-02-13T23:49:22.687Z,8.75
2018-02-13T23:51:50.172Z,8.52
2018-02-13T23:54:17.682Z,9.50
2018-02-13T23:56:45.177Z,9.65
2018-02-13T23:59:12.690Z,8.75
